createdAt,value
2022-09-26T00:00:13.382Z,86975.00
2022-09-26T00:02:43.969Z,86973.20
2022-09-26T00:05:13.657Z,86983.60
2022-09-26T00:07:42.937Z,86981.80
2022-09-26T00:10:12.525Z,86981.20
2022-09-26T00:12:41.877Z,86980.60
2022-09-26T00:15:12.143Z,86980.00
2022-09-26T00:17:41.519Z,86981.00
2022-09-26T00:20:11.371Z,86977.40
2022-09-26T00:22:40.770Z,86981.40
2022-09-26T00:25:10.542Z,86982.00
2022-09-26T00:27:40.003Z,86982.20
2022-09-26T00:30:09.815Z,86985.20
2022-09-26T00:32:39.101Z,86984.40
2022-09-26T00:35:14.635Z,86987.40
2022-09-26T00:37:43.949Z,86984.00
2022-09-26T00:40:13.426Z,86990.40
2022-09-26T00:42:42.791Z,86990.40
2022-09-26T00:45:12.853Z,86992.40
2022-09-26T00:48:00.594Z,86992.80
2022-09-26T00:50:43.515Z,86995.80
2022-09-26T00:53:26.316Z,87002.00
2022-09-26T00:56:07.304Z,87007.60
2022-09-26T00:58:55.211Z,87006.20
2022-09-26T01:01:25.934Z,87004.80
2022-09-26T01:03:55.729Z,87009.80
2022-09-26T01:06:25.234Z,87010.20
2022-09-26T01:09:10.966Z,87010.40
2022-09-26T01:11:43.487Z,87009.40
2022-09-26T01:14:15.347Z,87008.00
2022-09-26T01:16:49.778Z,87012.20
2022-09-26T01:19:51.626Z,87021.20
2022-09-26T01:22:47.288Z,87018.00
2022-09-26T01:25:59.168Z,87016.00
2022-09-26T01:28:55.912Z,87018.40
2022-09-26T01:32:15.210Z,87017.20
2022-09-26T01:35:19.744Z,87020.40
2022-09-26T01:38:12.880Z,87021.40
2022-09-26T01:41:30.252Z,87025.60
2022-09-26T01:44:33.874Z,87025.20
2022-09-26T01:47:47.685Z,87021.80
2022-09-26T01:50:49.483Z,87021.80
2022-09-26T01:53:25.626Z,87019.20
2022-09-26T01:56:06.917Z,87017.40
2022-09-26T01:59:01.112Z,87014.20
2022-09-26T02:01:44.109Z,87017.80
2022-09-26T02:04:23.038Z,87019.40
2022-09-26T02:07:23.344Z,87016.40
2022-09-26T02:10:06.819Z,87024.40
2022-09-26T02:12:40.617Z,87025.40
2022-09-26T02:15:17.303Z,87025.80
2022-09-26T02:18:01.866Z,87022.40
2022-09-26T02:20:39.595Z,87018.40
2022-09-26T02:23:09.902Z,87020.60
2022-09-26T02:25:39.188Z,87021.80
2022-09-26T02:28:09.728Z,87024.60
2022-09-26T02:30:40.385Z,87028.40
2022-09-26T02:33:10.094Z,87025.80
2022-09-26T02:35:58.685Z,87019.80
2022-09-26T02:38:32.147Z,87027.80
2022-09-26T02:41:44.952Z,87024.20
2022-09-26T02:44:50.342Z,87021.80
2022-09-26T02:47:37.228Z,87023.40
2022-09-26T02:50:21.349Z,87024.00
2022-09-26T02:53:34.098Z,87024.00
2022-09-26T02:56:18.656Z,87028.20
2022-09-26T02:58:50.740Z,87031.80
2022-09-26T03:01:51.887Z,87032.00
2022-09-26T03:05:04.837Z,87032.80
2022-09-26T03:07:58.259Z,87033.80
2022-09-26T03:10:31.898Z,87027.40
2022-09-26T03:13:18.320Z,87028.40
2022-09-26T03:15:55.148Z,87019.40
2022-09-26T03:18:38.664Z,87020.80
2022-09-26T03:21:08.390Z,87021.20
2022-09-26T03:23:37.656Z,87022.80
2022-09-26T03:26:17.832Z,87025.00
2022-09-26T03:28:47.600Z,87027.20
2022-09-26T03:31:16.993Z,87032.80
2022-09-26T03:33:47.457Z,87034.80
2022-09-26T03:36:17.288Z,87031.60
2022-09-26T03:38:46.534Z,87034.60
2022-09-26T03:41:16.097Z,87037.20
2022-09-26T03:43:45.275Z,87041.80
2022-09-26T03:46:15.721Z,87039.80
2022-09-26T03:48:45.582Z,87046.60
2022-09-26T03:51:16.310Z,87053.20
2022-09-26T03:53:48.231Z,87062.40
2022-09-26T03:56:21.122Z,87067.40
2022-09-26T03:58:50.902Z,87067.60
2022-09-26T04:01:23.948Z,87068.60
2022-09-26T04:03:53.376Z,87068.40
2022-09-26T04:06:23.076Z,87075.20
2022-09-26T04:08:54.792Z,87069.60
2022-09-26T04:11:26.136Z,87073.20
2022-09-26T04:13:55.958Z,87078.60
2022-09-26T04:16:26.521Z,87081.00
2022-09-26T04:18:59.976Z,87081.80
2022-09-26T04:21:29.724Z,87085.60
2022-09-26T04:23:59.477Z,87083.40
2022-09-26T04:26:29.338Z,87086.00
2022-09-26T04:29:00.124Z,87091.00
2022-09-26T04:31:30.096Z,87093.20
2022-09-26T04:33:59.380Z,87094.00
2022-09-26T04:36:28.798Z,87094.00
2022-09-26T04:39:01.740Z,87096.00
2022-09-26T04:41:32.463Z,87101.00
2022-09-26T04:44:03.016Z,87096.20
2022-09-26T04:46:33.248Z,87100.80
2022-09-26T04:49:03.960Z,87098.80
2022-09-26T04:51:34.225Z,87103.80
2022-09-26T04:54:03.412Z,87110.60
2022-09-26T04:56:33.387Z,87110.00
2022-09-26T04:59:03.278Z,87113.60
2022-09-26T05:01:32.337Z,87117.00
2022-09-26T05:04:01.485Z,87116.60
2022-09-26T05:06:30.530Z,87115.00
2022-09-26T05:08:59.945Z,87124.40
2022-09-26T05:11:29.273Z,87123.80
2022-09-26T05:13:58.809Z,87120.80
2022-09-26T05:16:29.262Z,87128.80
2022-09-26T05:18:58.538Z,87129.00
2022-09-26T05:21:28.309Z,87131.20
2022-09-26T05:24:16.585Z,87132.40
2022-09-26T05:26:54.795Z,87130.60
2022-09-26T05:29:24.323Z,87133.20
2022-09-26T05:31:55.641Z,87134.80
2022-09-26T05:34:27.675Z,87133.40
2022-09-26T05:36:57.523Z,87131.40
2022-09-26T05:39:45.569Z,87134.00
2022-09-26T05:42:16.386Z,87139.60
2022-09-26T05:44:45.493Z,87139.80
2022-09-26T05:47:14.863Z,87140.60
2022-09-26T05:49:44.174Z,87143.00
2022-09-26T05:52:13.682Z,87145.20
2022-09-26T05:54:43.096Z,87153.20
2022-09-26T05:57:14.015Z,87150.20
2022-09-26T05:59:43.548Z,87151.20
2022-09-26T06:02:17.234Z,87156.60
2022-09-26T06:04:50.432Z,87160.20
2022-09-26T06:07:20.393Z,87159.00
2022-09-26T06:09:50.248Z,87161.80
2022-09-26T06:12:20.690Z,87166.00
2022-09-26T06:14:49.865Z,87168.40
2022-09-26T06:17:19.341Z,87171.80
2022-09-26T06:19:48.796Z,87176.00
2022-09-26T06:22:17.877Z,87182.40
2022-09-26T06:24:47.256Z,87178.00
2022-09-26T06:27:16.669Z,87182.60
2022-09-26T06:29:45.916Z,87181.40
2022-09-26T06:32:15.189Z,87181.00
2022-09-26T06:34:44.791Z,87181.00
2022-09-26T06:37:14.141Z,87186.60
2022-09-26T06:39:43.485Z,87189.60
2022-09-26T06:42:12.910Z,87189.80
2022-09-26T06:44:45.007Z,87195.80
2022-09-26T06:47:14.738Z,87194.40
2022-09-26T06:49:48.653Z,87196.20
2022-09-26T06:52:18.051Z,87199.00
2022-09-26T06:54:50.002Z,87200.80
2022-09-26T06:57:19.521Z,87201.40
2022-09-26T06:59:48.737Z,87209.00
2022-09-26T07:02:18.117Z,87206.80
2022-09-26T07:04:49.623Z,87197.80
2022-09-26T07:07:18.908Z,87196.00
2022-09-26T07:09:48.544Z,87196.80
2022-09-26T07:12:18.030Z,87202.40
2022-09-26T07:14:51.406Z,87202.20
2022-09-26T07:17:22.818Z,87207.20
2022-09-26T07:19:55.057Z,87206.00
2022-09-26T07:22:24.483Z,87209.80
2022-09-26T07:24:53.840Z,87211.40
2022-09-26T07:27:23.097Z,87216.60
2022-09-26T07:29:52.542Z,87214.80
2022-09-26T07:32:21.771Z,87214.20
2022-09-26T07:34:51.264Z,87213.80
2022-09-26T07:37:20.684Z,87211.60
2022-09-26T07:39:53.561Z,87212.20
2022-09-26T07:42:24.190Z,87210.40
2022-09-26T07:45:21.985Z,87209.00
2022-09-26T07:48:01.173Z,87212.00
2022-09-26T07:50:30.427Z,87207.60
2022-09-26T07:52:59.626Z,87209.20
2022-09-26T07:55:30.115Z,87203.00
2022-09-26T07:58:00.243Z,87204.20
2022-09-26T08:00:31.515Z,87202.60
2022-09-26T08:03:05.858Z,87203.20
2022-09-26T08:05:38.306Z,87202.60
2022-09-26T08:08:07.759Z,87199.60
2022-09-26T08:10:37.903Z,87199.00
2022-09-26T08:13:07.313Z,87202.00
2022-09-26T08:15:37.335Z,87201.40
2022-09-26T08:18:06.807Z,87204.00
2022-09-26T08:20:36.828Z,87204.20
2022-09-26T08:23:06.206Z,87204.60
2022-09-26T08:25:35.508Z,87204.00
2022-09-26T08:28:10.946Z,87204.00
2022-09-26T08:30:45.969Z,87205.60
2022-09-26T08:33:15.836Z,87209.60
2022-09-26T08:35:44.997Z,87209.80
2022-09-26T08:38:16.298Z,87206.00
2022-09-26T08:41:04.122Z,87205.40
2022-09-26T08:44:04.841Z,87210.00
2022-09-26T08:46:50.093Z,87202.60
2022-09-26T08:49:31.177Z,87207.20
2022-09-26T08:52:08.186Z,87206.40
2022-09-26T08:54:44.380Z,87204.80
2022-09-26T08:57:45.122Z,87205.00
2022-09-26T09:00:21.273Z,87210.60
2022-09-26T09:03:02.400Z,87214.20
2022-09-26T09:05:47.513Z,87212.80
2022-09-26T09:08:34.657Z,87220.20
2022-09-26T09:11:22.871Z,87217.60
2022-09-26T09:14:15.468Z,87216.40
2022-09-26T09:17:28.399Z,87216.80
2022-09-26T09:20:12.618Z,87222.40
2022-09-26T09:23:25.054Z,87227.00
2022-09-26T09:29:49.357Z,87229.40
2022-09-26T09:32:28.848Z,87228.40
2022-09-26T09:34:59.268Z,87228.20
2022-09-26T09:37:42.084Z,87224.40
2022-09-26T09:40:29.724Z,87226.40
2022-09-26T09:43:37.816Z,87225.80
2022-09-26T09:46:26.112Z,87231.60
2022-09-26T09:49:10.509Z,87229.40
2022-09-26T09:52:28.194Z,87229.60
2022-09-26T09:55:27.746Z,87228.60
2022-09-26T09:58:59.453Z,87227.00
2022-09-26T10:01:44.189Z,87225.80
2022-09-26T10:04:57.056Z,87223.60
2022-09-26T10:07:26.258Z,87224.40
2022-09-26T10:09:55.537Z,87231.40
2022-09-26T10:12:30.748Z,87232.40
2022-09-26T10:15:13.633Z,87228.00
2022-09-26T10:18:00.886Z,87230.40
2022-09-26T10:20:43.335Z,87232.40
2022-09-26T10:23:34.105Z,87236.20
2022-09-26T10:26:10.961Z,87238.40
2022-09-26T10:28:50.441Z,87234.00
2022-09-26T10:31:42.813Z,87231.40
2022-09-26T10:34:35.170Z,87231.60
2022-09-26T10:37:33.139Z,87229.60
2022-09-26T10:40:21.031Z,87229.20
2022-09-26T10:42:50.480Z,87233.00
2022-09-26T10:45:28.368Z,87227.40
2022-09-26T10:47:58.379Z,87226.60
2022-09-26T10:50:30.673Z,87220.40
2022-09-26T10:53:09.410Z,87223.40
2022-09-26T10:56:06.663Z,87221.20
2022-09-26T10:58:49.065Z,87217.20
2022-09-26T11:01:32.388Z,87217.20
2022-09-26T11:04:40.040Z,87219.40
2022-09-26T11:07:20.221Z,87220.80
2022-09-26T11:09:49.717Z,87220.60
2022-09-26T11:12:36.439Z,87220.80
2022-09-26T11:15:16.321Z,87223.40
2022-09-26T11:17:54.921Z,87220.00
2022-09-26T11:20:56.525Z,87222.40
2022-09-26T11:23:48.782Z,87221.00
2022-09-26T11:27:05.423Z,87218.60
2022-09-26T11:29:54.022Z,87217.80
2022-09-26T11:32:43.220Z,87217.20
2022-09-26T11:36:23.743Z,87218.80
2022-09-26T11:38:58.881Z,87220.40
2022-09-26T11:42:06.498Z,87224.60
2022-09-26T11:45:11.997Z,87225.40
2022-09-26T11:48:20.890Z,87229.00
2022-09-26T11:51:20.854Z,87227.00
2022-09-26T11:54:03.625Z,87227.40
2022-09-26T11:57:05.129Z,87229.80
2022-09-26T12:00:25.377Z,87234.20
2022-09-26T12:03:34.442Z,87232.80
2022-09-26T12:06:46.702Z,87233.40
2022-09-26T12:09:40.274Z,87231.80
2022-09-26T12:12:43.543Z,87234.00
2022-09-26T12:15:24.572Z,87237.00
2022-09-26T12:18:28.214Z,87237.00
2022-09-26T12:21:31.102Z,87242.20
2022-09-26T12:24:25.158Z,87243.00
2022-09-26T12:27:11.846Z,87242.20
2022-09-26T12:30:15.571Z,87249.80
2022-09-26T12:33:28.886Z,87246.20
2022-09-26T12:36:52.124Z,87237.60
2022-09-26T12:39:37.850Z,87235.80
2022-09-26T12:42:44.167Z,87233.60
2022-09-26T12:46:18.283Z,87234.80
2022-09-26T12:49:54.723Z,87232.60
2022-09-26T12:53:02.580Z,87232.40
2022-09-26T12:55:50.227Z,87233.20
2022-09-26T12:58:52.923Z,87235.40
2022-09-26T13:01:48.693Z,87239.40
2022-09-26T13:04:49.958Z,87244.40
2022-09-26T13:07:45.089Z,87243.20
2022-09-26T13:10:39.174Z,87243.40
2022-09-26T13:13:48.438Z,87246.20
2022-09-26T13:17:20.319Z,87248.20
2022-09-26T13:20:20.067Z,87244.20
2022-09-26T13:23:18.764Z,87245.60
2022-09-26T13:26:31.931Z,87242.80
2022-09-26T13:29:29.971Z,87242.00
2022-09-26T13:32:14.144Z,87239.00
2022-09-26T13:34:54.470Z,87234.60
2022-09-26T13:37:44.360Z,87237.60
2022-09-26T13:40:47.550Z,87238.80
2022-09-26T13:43:48.538Z,87242.40
2022-09-26T13:46:41.190Z,87251.20
2022-09-26T13:49:37.849Z,87255.20
2022-09-26T13:52:43.498Z,87257.40
2022-09-26T13:55:22.810Z,87258.60
2022-09-26T13:58:07.732Z,87256.40
2022-09-26T14:00:41.696Z,87256.60
2022-09-26T14:03:20.209Z,87262.00
2022-09-26T14:06:08.994Z,87260.40
2022-09-26T14:09:17.095Z,87265.80
2022-09-26T14:11:52.905Z,87266.60
2022-09-26T14:14:39.036Z,87268.60
2022-09-26T14:17:46.312Z,87266.80
2022-09-26T14:20:32.827Z,87269.80
2022-09-26T14:23:04.419Z,87267.00
2022-09-26T14:25:58.126Z,87272.00
2022-09-26T14:28:54.457Z,87277.00
2022-09-26T14:31:27.070Z,87277.20
2022-09-26T14:34:18.953Z,87280.20
2022-09-26T14:36:51.021Z,87281.40
2022-09-26T14:39:38.196Z,87279.00
2022-09-26T14:42:38.481Z,87277.00
2022-09-26T14:45:19.617Z,87279.60
2022-09-26T14:48:05.855Z,87279.20
2022-09-26T14:50:52.412Z,87275.40
2022-09-26T14:53:52.312Z,87280.40
2022-09-26T14:56:51.170Z,87280.60
2022-09-26T14:59:41.680Z,87274.80
2022-09-26T15:02:16.938Z,87277.20
2022-09-26T15:04:53.044Z,87275.60
2022-09-26T15:07:28.533Z,87278.80
2022-09-26T15:10:28.222Z,87273.80
2022-09-26T15:13:20.141Z,87275.60
2022-09-26T15:16:22.385Z,87272.20
2022-09-26T15:19:12.803Z,87268.60
2022-09-26T15:21:52.678Z,87276.80
2022-09-26T15:24:37.806Z,87274.60
2022-09-26T15:27:18.418Z,87273.40
2022-09-26T15:30:06.457Z,87269.40
2022-09-26T15:32:35.915Z,87277.80
2022-09-26T15:35:06.000Z,87269.00
2022-09-26T15:37:37.590Z,87269.60
2022-09-26T15:40:30.012Z,87267.40
2022-09-26T15:43:11.051Z,87264.80
2022-09-26T15:45:50.339Z,87269.60
2022-09-26T15:48:22.666Z,87269.60
2022-09-26T15:51:20.714Z,87264.20
2022-09-26T15:54:06.957Z,87261.60
2022-09-26T15:56:50.055Z,87257.00
2022-09-26T15:59:41.759Z,87259.40
2022-09-26T16:02:32.017Z,87256.60
2022-09-26T16:05:02.289Z,87259.40
2022-09-26T16:07:32.133Z,87255.20
2022-09-26T16:10:04.645Z,87249.40
2022-09-26T16:12:35.108Z,87255.40
2022-09-26T16:15:21.020Z,87256.20
2022-09-26T16:17:58.264Z,87251.20
2022-09-26T16:20:30.454Z,87256.00
2022-09-26T16:23:05.851Z,87244.20
2022-09-26T16:25:54.527Z,87241.80
2022-09-26T16:28:43.582Z,87239.60
2022-09-26T16:31:30.008Z,87239.60
2022-09-26T16:34:02.227Z,87236.20
2022-09-26T16:36:36.242Z,87229.20
2022-09-26T16:39:10.006Z,87226.60
2022-09-26T16:42:03.240Z,87223.20
2022-09-26T16:44:42.682Z,87217.60
2022-09-26T16:47:33.383Z,87214.80
2022-09-26T16:50:29.048Z,87215.80
2022-09-26T16:52:59.471Z,87206.60
2022-09-26T16:55:30.146Z,87203.60
2022-09-26T16:58:04.013Z,87202.40
2022-09-26T17:00:54.533Z,87198.60
2022-09-26T17:03:34.196Z,87199.00
2022-09-26T17:06:03.873Z,87187.20
2022-09-26T17:08:35.102Z,87188.80
2022-09-26T17:11:14.519Z,87187.80
2022-09-26T17:13:45.002Z,87181.00
2022-09-26T17:16:14.957Z,87178.40
2022-09-26T17:18:45.681Z,87178.20
2022-09-26T17:21:15.150Z,87177.00
2022-09-26T17:23:44.331Z,87175.40
2022-09-26T17:26:24.658Z,87172.60
2022-09-26T17:28:55.243Z,87163.60
2022-09-26T17:31:24.722Z,87168.00
2022-09-26T17:33:55.844Z,87168.20
2022-09-26T17:36:29.418Z,87165.00
2022-09-26T17:39:03.444Z,87163.20
2022-09-26T17:41:35.459Z,87161.20
2022-09-26T17:44:04.906Z,87155.80
2022-09-26T17:46:34.567Z,87151.40
2022-09-26T17:49:07.790Z,87152.40
2022-09-26T17:51:37.829Z,87143.00
2022-09-26T17:54:08.602Z,87146.20
2022-09-26T17:56:38.150Z,87146.20
2022-09-26T17:59:23.680Z,87139.00
2022-09-26T18:01:59.336Z,87134.80
2022-09-26T18:04:30.852Z,87134.60
2022-09-26T18:07:05.730Z,87131.80
2022-09-26T18:09:37.430Z,87124.60
2022-09-26T18:12:07.866Z,87123.00
2022-09-26T18:14:37.380Z,87120.20
2022-09-26T18:17:07.306Z,87118.20
2022-09-26T18:19:37.785Z,87112.40
2022-09-26T18:22:19.769Z,87107.60
2022-09-26T18:24:53.063Z,87097.40
2022-09-26T18:27:24.186Z,87097.80
2022-09-26T18:29:53.675Z,87097.40
2022-09-26T18:32:34.360Z,87093.60
2022-09-26T18:35:04.169Z,87087.00
2022-09-26T18:37:34.026Z,87083.40
2022-09-26T18:40:04.590Z,87081.20
2022-09-26T18:42:34.421Z,87077.80
2022-09-26T18:45:06.950Z,87077.00
2022-09-26T18:47:45.955Z,87072.80
2022-09-26T18:50:42.314Z,87067.20
2022-09-26T18:53:20.934Z,87056.80
2022-09-26T18:56:08.967Z,87057.00
2022-09-26T18:58:39.162Z,87053.20
2022-09-26T19:01:28.672Z,87051.20
2022-09-26T19:04:05.093Z,87046.00
2022-09-26T19:06:42.827Z,87038.20
2022-09-26T19:09:22.463Z,87042.80
2022-09-26T19:11:51.729Z,87032.80
2022-09-26T19:14:26.759Z,87028.40
2022-09-26T19:16:57.457Z,87023.20
2022-09-26T19:19:29.523Z,87024.00
2022-09-26T19:22:03.046Z,87020.40
2022-09-26T19:24:57.163Z,87019.60
2022-09-26T19:27:39.756Z,87014.80
2022-09-26T19:30:22.198Z,87012.40
2022-09-26T19:32:54.449Z,87013.20
2022-09-26T19:35:35.569Z,87009.60
2022-09-26T19:38:27.583Z,87005.00
2022-09-26T19:40:57.755Z,87004.20
2022-09-26T19:43:27.173Z,86994.80
2022-09-26T19:45:57.230Z,86986.00
2022-09-26T19:48:26.869Z,86980.00
2022-09-26T19:50:56.877Z,86979.20
2022-09-26T19:53:26.332Z,86976.80
2022-09-26T19:55:56.846Z,86966.00
2022-09-26T19:58:31.389Z,86960.80
2022-09-26T20:01:11.273Z,86953.40
2022-09-26T20:03:44.827Z,86947.40
2022-09-26T20:06:20.372Z,86945.80
2022-09-26T20:08:51.321Z,86949.40
2022-09-26T20:11:23.315Z,86946.20
2022-09-26T20:14:11.307Z,86947.60
2022-09-26T20:16:47.122Z,86938.00
2022-09-26T20:19:26.024Z,86932.00
2022-09-26T20:21:55.457Z,86934.00
2022-09-26T20:24:24.629Z,86932.60
2022-09-26T20:26:54.246Z,86927.60
2022-09-26T20:29:24.159Z,86923.20
2022-09-26T20:31:53.328Z,86918.20
2022-09-26T20:34:22.915Z,86916.60
2022-09-26T20:36:53.477Z,86915.20
2022-09-26T20:39:28.464Z,86908.80
2022-09-26T20:41:58.447Z,86909.20
2022-09-26T20:44:34.768Z,86902.80
2022-09-26T20:47:07.480Z,86908.80
2022-09-26T20:49:55.648Z,86906.40
2022-09-26T20:52:28.731Z,86894.60
2022-09-26T20:54:59.595Z,86894.80
2022-09-26T20:57:29.741Z,86889.60
2022-09-26T20:59:59.503Z,86885.00
2022-09-26T21:02:33.559Z,86881.40
2022-09-26T21:05:04.358Z,86878.20
2022-09-26T21:07:34.906Z,86877.40
2022-09-26T21:10:10.661Z,86870.20
2022-09-26T21:12:43.217Z,86861.40
2022-09-26T21:15:14.179Z,86863.60
2022-09-26T21:17:45.720Z,86862.80
2022-09-26T21:20:25.241Z,86855.60
2022-09-26T21:22:56.556Z,86851.80
2022-09-26T21:25:30.173Z,86849.00
2022-09-26T21:28:27.466Z,86848.80
2022-09-26T21:31:01.765Z,86841.00
2022-09-26T21:33:31.250Z,86836.60
2022-09-26T21:36:00.632Z,86834.00
2022-09-26T21:38:31.346Z,86834.80
2022-09-26T21:41:03.073Z,86828.40
2022-09-26T21:43:44.680Z,86825.80
2022-09-26T21:46:14.005Z,86822.20
2022-09-26T21:48:44.111Z,86824.60
2022-09-26T21:51:14.208Z,86818.20
2022-09-26T21:53:57.605Z,86815.80
2022-09-26T21:56:34.386Z,86814.40
2022-09-26T21:59:05.569Z,86807.00
2022-09-26T22:01:34.761Z,86807.20
2022-09-26T22:04:04.307Z,86809.00
2022-09-26T22:06:35.779Z,86802.80
2022-09-26T22:09:04.959Z,86798.00
2022-09-26T22:11:34.182Z,86791.60
2022-09-26T22:14:03.625Z,86790.60
2022-09-26T22:16:32.971Z,86792.20
2022-09-26T22:19:02.552Z,86788.40
2022-09-26T22:21:32.253Z,86783.40
2022-09-26T22:24:01.933Z,86785.00
2022-09-26T22:26:31.254Z,86780.20
2022-09-26T22:29:00.659Z,86779.40
2022-09-26T22:31:29.810Z,86778.40
2022-09-26T22:34:01.112Z,86772.40
2022-09-26T22:36:30.383Z,86771.00
2022-09-26T22:39:00.218Z,86774.00
2022-09-26T22:41:29.688Z,86767.00
2022-09-26T22:43:59.089Z,86764.60
2022-09-26T22:46:28.550Z,86763.00
2022-09-26T22:48:58.097Z,86765.60
2022-09-26T22:51:27.464Z,86759.60
2022-09-26T22:53:56.915Z,86755.60
2022-09-26T22:56:26.422Z,86753.40
2022-09-26T22:58:55.921Z,86749.40
2022-09-26T23:01:29.479Z,86745.20
2022-09-26T23:04:01.605Z,86745.40
2022-09-26T23:06:32.729Z,86744.60
2022-09-26T23:09:02.199Z,86736.00
2022-09-26T23:11:32.153Z,86732.80
2022-09-26T23:14:01.462Z,86732.20
2022-09-26T23:16:30.914Z,86731.40
2022-09-26T23:19:00.970Z,86726.00
2022-09-26T23:21:30.642Z,86732.80
2022-09-26T23:24:00.092Z,86728.40
2022-09-26T23:26:33.090Z,86726.80
2022-09-26T23:29:03.095Z,86728.60
2022-09-26T23:31:32.645Z,86722.40
2022-09-26T23:34:02.221Z,86718.80
2022-09-26T23:36:31.566Z,86716.00
2022-09-26T23:39:01.195Z,86718.80
2022-09-26T23:41:31.440Z,86718.00
2022-09-26T23:44:00.661Z,86719.40
2022-09-26T23:46:29.833Z,86721.80
2022-09-26T23:48:59.491Z,86720.20
2022-09-26T23:51:29.005Z,86719.60
2022-09-26T23:53:58.303Z,86718.00
2022-09-26T23:56:27.477Z,86718.60
2022-09-26T23:58:58.637Z,86715.60
